Hayti, MO (63851)

9:50 AM CDT on May 27, 2017 (GMT -0500)
| | Change Station
Active Advisory: Flood Advisory Active Notice: Flood Advisory

Elev -9999 ft 0.00 °N, 0.00 °E | Updated 8 minutes ago

Mostly Cloudy
Mostly Cloudy
°F
Feels Like °F
N
Wind Variable Wind from North
Gusts mph

Today
High -- | Low -- °F
--% Chance of Precip.
Yesterday
High -- | Low -- °F
Precip. -- in
Pressure 29.88 in
Visibility 10.0 miles
Clouds Overcast 1100 ft
Dew Point Not available.
Humidity Not available.
Rainfall --
Snow Depth Not available.
5:44 AM 8:07 PM
Waxing Crescent, 5% visible
METAR KHKA 271353Z AUTO 21010G17KT 10SM OVC011 24/23 A2989 RMK AO2 SLP118 T02440233 $
Pressure 29.88 in
Visibility 10.0 miles
Clouds Overcast 1100 ft
Dew Point Not available.
Humidity Not available.
Rainfall --
Snow Depth Not available.
5:44 AM 8:07 PM
Waxing Crescent, 5% visible
METAR KHKA 271353Z AUTO 21010G17KT 10SM OVC011 24/23 A2989 RMK AO2 SLP118 T02440233 $

Get Your Daily Forecast Email!

Thanks for signing up!

Be on the lookout for a verification email in your inbox.

You'll start receiving severe weather alerts in your inbox..

×

10-Day Weather Forecast

Almanac

Astronomy

May. 27, 2017 Rise Set
Actual Time
Civil Twilight
Nautical Twilight
Astronomical Twilight
Moon
Length of Visible Light
Length of Day
Tomorrow will be .
, % of the Moon is Illuminated

Today's Extremes

State Highs State Lows

Community

WunderPhotos

Category 6

Welcome to Category 6. This is the collective home for Weather Underground's featured writeups by Dr. Jeff Masters (right), Bob Henson (left), Chris Burt, and other regular contributors.

Nearby

Air Quality

  Air Quality AQ Index Pollutant
Not available.

Snow Depth

Station Depth Elevation

Earthquake Activity

City Distance Mag. Time & Date
Minimum magnitude displayed is 2.5.

Coastal Water Temperatures

Place Temperature

Stations

Nearby Weather Stations

Station Location Temp. Windchill Dew Point Humidity Wind Precip. Elev Updated Type
                   

Watches & Warnings

Flood Advisory
Issued: 8:32 PM CDT May. 26, 2017 – National Weather Service

The flood advisory continues for
the Mississippi River at Caruthersville
* until Friday June 02.
* At 08 PM Friday the stage was 30.6 feet.
* Flood stage is 32.0 feet.
* Forecast... the river will rise to near 30.6 feet Saturday may 27.
* At 31.0 feet... in Arkansas, Road and field flooding is widespread
at Cottonwood Point. Access roads off Arkansas Road 362 are
flooding. In Tennessee, grain shipping facility south of Heloise is
mostly under water. Dee Webb Road and Watkins Road are flooding,
along with Brady Ridge Road. Barr Road north of wardlow pocket area
is being covered.


Lat... Lon 3623 8977 3623 8948 3606 8950 3595 8948
      3582 8956 3582 8985